createdAt,value
2023-02-09T00:04:18.520Z,102128.13
2023-02-09T00:09:21.381Z,102131.72
2023-02-09T00:14:24.144Z,102130.84
2023-02-09T00:19:28.746Z,102122.06
2023-02-09T00:24:31.532Z,102125.59
2023-02-09T00:29:34.278Z,102122.16
2023-02-09T00:34:39.287Z,102121.28
2023-02-09T00:39:42.129Z,102126.56
2023-02-09T00:44:45.997Z,102113.44
2023-02-09T00:49:50.089Z,102118.72
2023-02-09T00:54:52.875Z,102110.81
2023-02-09T00:59:55.666Z,102102.91
2023-02-09T01:05:00.004Z,102108.22
2023-02-09T01:10:03.421Z,102111.72
2023-02-09T01:15:06.585Z,102096.78
2023-02-09T01:20:13.415Z,102091.53
2023-02-09T01:25:16.220Z,102095.97
2023-02-09T01:30:19.035Z,102103.03
2023-02-09T01:35:23.121Z,102096.88
2023-02-09T01:40:25.874Z,102094.22
2023-02-09T01:45:33.103Z,102088.09
2023-02-09T01:50:40.417Z,102081.03
2023-02-09T01:55:52.240Z,102064.34
2023-02-09T02:00:55.129Z,102077.53
2023-02-09T02:06:06.192Z,102064.41
2023-02-09T02:11:09.785Z,102056.50
2023-02-09T02:16:29.566Z,102056.50
2023-02-09T02:22:20.100Z,102051.28
2023-02-09T02:27:32.209Z,102045.13
2023-02-09T02:32:53.694Z,102037.22
2023-02-09T02:38:04.029Z,102029.28
2023-02-09T02:43:19.165Z,102028.44
2023-02-09T02:48:34.674Z,102019.66
2023-02-09T02:53:41.753Z,102012.63
2023-02-09T02:58:47.290Z,102007.41
2023-02-09T03:03:53.088Z,101998.56
2023-02-09T03:08:57.562Z,101999.47
2023-02-09T03:14:15.327Z,102017.03
2023-02-09T03:19:31.098Z,102018.81
2023-02-09T03:24:39.010Z,102022.31
2023-02-09T03:29:44.005Z,102009.13
2023-02-09T03:34:48.985Z,102010.00
2023-02-09T03:39:51.870Z,102011.78
2023-02-09T03:44:54.631Z,102011.81
2023-02-09T03:49:59.301Z,102011.81
2023-02-09T03:55:03.185Z,101996.00
2023-02-09T04:00:07.027Z,102002.16
2023-02-09T04:05:16.024Z,102009.13
2023-02-09T04:10:19.064Z,102003.91
2023-02-09T04:15:21.835Z,102010.03
2023-02-09T04:20:25.924Z,101998.66
2023-02-09T04:25:28.730Z,101991.66
2023-02-09T04:30:31.504Z,101975.84
2023-02-09T04:35:35.619Z,101973.25
2023-02-09T04:40:38.462Z,101969.72
2023-02-09T04:45:42.341Z,101971.50
2023-02-09T04:50:47.381Z,101977.63
2023-02-09T04:55:52.445Z,101974.13
2023-02-09T05:00:56.324Z,101967.13
2023-02-09T05:06:02.714Z,101968.88
2023-02-09T05:11:05.662Z,101969.75
2023-02-09T05:16:10.320Z,101968.91
2023-02-09T05:21:15.228Z,101966.25
2023-02-09T05:26:18.803Z,101949.63
2023-02-09T05:31:21.679Z,101939.09
2023-02-09T05:36:25.828Z,101940.84
2023-02-09T05:41:45.953Z,101938.19
2023-02-09T05:46:48.613Z,101925.88
2023-02-09T05:51:52.725Z,101939.94
2023-02-09T05:56:55.439Z,101948.72
2023-02-09T06:01:58.392Z,101972.38
2023-02-09T06:07:02.457Z,101969.75
2023-02-09T06:12:05.590Z,101967.13
2023-02-09T06:17:08.334Z,101982.91
2023-02-09T06:22:12.430Z,101961.84
2023-02-09T06:27:15.187Z,101964.47
2023-02-09T06:32:18.061Z,101975.88
2023-02-09T06:37:22.218Z,101992.53
2023-02-09T06:42:25.042Z,101984.63
2023-02-09T06:47:28.080Z,101989.91
2023-02-09T06:52:32.187Z,101974.09
2023-02-09T06:57:35.382Z,101996.03
2023-02-09T07:02:38.211Z,102006.56
2023-02-09T07:07:42.740Z,102017.97
2023-02-09T07:12:46.062Z,102026.75
2023-02-09T07:17:48.800Z,102029.34
2023-02-09T07:22:52.922Z,102016.88
2023-02-09T07:27:55.731Z,102033.25
2023-02-09T07:32:58.526Z,102030.53
2023-02-09T07:38:02.687Z,102017.38
2023-02-09T07:43:06.114Z,101997.34
2023-02-09T07:48:11.022Z,101987.75
2023-02-09T07:53:15.149Z,101982.34
2023-02-09T07:58:19.927Z,101976.09
2023-02-09T08:03:24.967Z,101973.44
2023-02-09T08:08:29.238Z,101960.78
2023-02-09T08:13:37.853Z,101977.50
2023-02-09T08:18:44.070Z,101998.81
2023-02-09T08:23:52.533Z,101992.88
2023-02-09T08:28:55.873Z,101984.44
2023-02-09T08:33:58.612Z,101995.59
2023-02-09T08:39:03.168Z,102008.78
2023-02-09T08:44:06.307Z,102012.69
2023-02-09T08:49:09.072Z,102015.88
2023-02-09T08:54:13.366Z,102013.00
2023-02-09T08:59:17.851Z,102027.34
2023-02-09T09:04:22.070Z,102027.72
2023-02-09T09:09:26.577Z,102024.75
2023-02-09T09:14:29.383Z,102028.44
2023-02-09T09:19:32.116Z,102034.31
2023-02-09T09:24:40.535Z,102025.34
2023-02-09T09:29:43.361Z,102024.22
2023-02-09T09:34:46.082Z,102040.63
2023-02-09T09:39:50.813Z,102031.75
2023-02-09T09:44:55.306Z,102025.63
2023-02-09T09:49:58.118Z,102017.28
2023-02-09T09:55:04.036Z,102033.22
2023-02-09T10:00:18.157Z,102039.22
2023-02-09T10:05:23.686Z,102035.72
2023-02-09T10:10:38.866Z,102025.13
2023-02-09T10:15:41.720Z,102025.81
2023-02-09T10:20:47.935Z,102025.69
2023-02-09T10:25:58.868Z,102029.69
2023-02-09T10:31:04.389Z,102035.19
2023-02-09T10:36:09.714Z,102014.09
2023-02-09T10:41:15.787Z,101983.75
2023-02-09T10:46:21.511Z,102004.28
2023-02-09T10:51:29.086Z,101979.63
2023-02-09T10:56:44.783Z,101994.72
2023-02-09T11:01:55.371Z,101992.06
2023-02-09T11:07:00.100Z,101987.44
2023-02-09T11:12:04.417Z,101996.97
2023-02-09T11:17:16.656Z,101986.44
2023-02-09T11:22:28.836Z,101992.16
2023-02-09T11:27:44.287Z,101983.28
2023-02-09T11:32:52.632Z,101977.09
2023-02-09T11:38:00.812Z,101968.03
2023-02-09T11:43:15.760Z,101964.28
2023-02-09T11:48:25.906Z,101962.38
2023-02-09T11:53:35.817Z,101976.16
2023-02-09T11:58:45.325Z,101973.72
2023-02-09T12:04:04.202Z,101954.59
2023-02-09T12:09:28.864Z,101961.53
2023-02-09T12:14:49.064Z,101969.78
2023-02-09T12:19:58.154Z,101965.16
2023-02-09T12:25:19.478Z,101964.97
2023-02-09T12:31:02.421Z,101961.38
2023-02-09T12:36:25.110Z,101953.59
2023-02-09T12:41:30.413Z,101952.00
2023-02-09T12:46:53.473Z,101964.44
2023-02-09T12:52:16.499Z,101949.69
2023-02-09T12:57:52.552Z,101955.34
2023-02-09T13:02:57.606Z,101948.88
2023-02-09T13:08:07.355Z,101946.84
2023-02-09T13:13:18.639Z,101953.00
2023-02-09T13:18:32.530Z,101948.81
2023-02-09T13:23:42.030Z,101928.09
2023-02-09T13:28:44.847Z,101931.09
2023-02-09T13:33:53.598Z,101928.41
2023-02-09T13:38:56.376Z,101910.81
2023-02-09T13:43:59.134Z,101916.78
2023-02-09T13:49:13.945Z,101906.72
2023-02-09T13:54:20.010Z,101905.25
2023-02-09T13:59:23.433Z,101914.56
2023-02-09T14:04:31.204Z,101890.94
2023-02-09T14:09:44.579Z,101899.56
2023-02-09T14:15:14.479Z,101895.81
2023-02-09T14:20:24.522Z,101901.09
2023-02-09T14:25:27.902Z,101899.84
2023-02-09T14:30:36.250Z,101898.97
2023-02-09T14:35:42.384Z,101905.09
2023-02-09T14:40:45.234Z,101890.25
2023-02-09T14:45:50.160Z,101890.28
2023-02-09T14:50:56.771Z,101893.31
2023-02-09T14:56:00.060Z,101900.03
2023-02-09T15:07:54.422Z,101902.41
2023-02-09T15:12:57.853Z,101902.69
2023-02-09T15:18:01.270Z,101898.34
2023-02-09T15:23:05.295Z,101903.38
2023-02-09T15:28:13.676Z,101906.72
2023-02-09T15:33:16.340Z,101909.91
2023-02-09T15:38:21.029Z,101917.50
2023-02-09T15:43:42.616Z,101929.31
2023-02-09T15:48:45.389Z,101943.22
2023-02-09T15:53:50.010Z,101959.16
2023-02-09T15:58:53.300Z,101963.84
2023-02-09T16:04:08.353Z,101961.25
2023-02-09T16:09:21.542Z,101958.09
2023-02-09T16:14:26.537Z,101979.47
2023-02-09T16:19:29.301Z,101975.28
2023-02-09T16:24:37.260Z,101987.88
2023-02-09T16:29:41.209Z,101999.16
2023-02-09T16:34:44.524Z,102004.81
2023-02-09T16:39:48.947Z,102012.44
2023-02-09T16:44:51.758Z,102020.69
2023-02-09T16:50:00.387Z,102028.94
2023-02-09T16:55:07.331Z,102027.41
2023-02-09T17:00:11.880Z,102022.78
2023-02-09T17:05:20.047Z,102026.22
2023-02-09T17:10:28.396Z,102026.19
2023-02-09T17:15:34.067Z,102012.00
2023-02-09T17:20:41.116Z,102013.00
2023-02-09T17:25:45.976Z,102026.59
2023-02-09T17:30:50.142Z,102033.44
2023-02-09T17:36:23.854Z,102034.38
2023-02-09T17:41:20.057Z,102030.06
2023-02-09T17:46:22.902Z,102030.00
2023-02-09T17:51:31.890Z,102042.78
2023-02-09T17:56:36.056Z,102038.88
2023-02-09T18:01:41.459Z,102044.94
2023-02-09T18:06:44.387Z,102057.03
2023-02-09T18:12:01.951Z,102068.13
2023-02-09T18:17:04.838Z,102076.38
2023-02-09T18:22:07.919Z,102067.22
2023-02-09T18:27:14.505Z,102085.75
2023-02-09T18:32:18.245Z,102088.84
2023-02-09T18:37:21.017Z,102096.28
2023-02-09T18:42:25.172Z,102096.38
2023-02-09T18:47:28.086Z,102096.38
2023-02-09T18:52:30.978Z,102104.25
2023-02-09T18:57:35.061Z,102106.03
2023-02-09T19:02:37.820Z,102099.97
2023-02-09T19:07:40.707Z,102117.69
2023-02-09T19:12:45.322Z,102119.50
2023-02-09T19:17:48.070Z,102123.38
2023-02-09T19:22:51.641Z,102134.88
2023-02-09T19:27:56.407Z,102131.00
2023-02-09T19:33:00.050Z,102134.50
2023-02-09T19:38:02.856Z,102130.78
2023-02-09T19:43:07.236Z,102145.03
2023-02-09T19:48:12.078Z,102152.56
2023-02-09T19:53:15.550Z,102154.97
2023-02-09T19:58:21.284Z,102150.47
2023-02-09T20:03:24.833Z,102145.78
2023-02-09T20:08:27.672Z,102151.75
2023-02-09T20:13:34.202Z,102156.00
2023-02-09T20:18:36.986Z,102156.22
2023-02-09T20:23:39.798Z,102142.66
2023-02-09T20:28:44.200Z,102152.13
2023-02-09T20:33:47.149Z,102145.59
2023-02-09T20:38:50.029Z,102137.47
2023-02-09T20:44:11.607Z,102145.81
2023-02-09T20:49:16.802Z,102132.00
2023-02-09T20:54:19.583Z,102138.94
2023-02-09T20:59:23.740Z,102134.97
2023-02-09T21:04:30.126Z,102134.84
2023-02-09T21:09:34.208Z,102132.06
2023-02-09T21:14:41.990Z,102136.94
2023-02-09T21:19:45.912Z,102125.94
2023-02-09T21:24:48.694Z,102125.94
2023-02-09T21:29:52.831Z,102133.47
2023-02-09T21:34:55.604Z,102143.56
2023-02-09T21:40:01.945Z,102136.78
2023-02-09T21:45:08.018Z,102133.28
2023-02-09T21:50:13.079Z,102138.28
2023-02-09T21:55:16.960Z,102136.00
2023-02-09T22:00:21.544Z,102131.00
2023-02-09T22:05:25.010Z,102129.16
2023-02-09T22:10:27.991Z,102137.66
2023-02-09T22:15:32.153Z,102133.59
2023-02-09T22:20:34.842Z,102141.41
2023-02-09T22:25:37.665Z,102143.41
2023-02-09T22:30:41.904Z,102146.72
2023-02-09T22:35:44.818Z,102152.03
2023-02-09T22:40:47.780Z,102155.88
2023-02-09T22:45:57.019Z,102168.41
2023-02-09T22:50:59.752Z,102179.38
2023-02-09T22:56:03.195Z,102203.50
2023-02-09T23:01:07.896Z,102200.63
2023-02-09T23:06:13.810Z,102202.78
2023-02-09T23:11:18.245Z,102207.59
2023-02-09T23:16:24.508Z,102218.38
2023-02-09T23:21:30.381Z,102225.13
2023-02-09T23:26:33.245Z,102222.41
2023-02-09T23:31:37.548Z,102220.28
2023-02-09T23:36:40.340Z,102231.00
2023-02-09T23:41:43.124Z,102236.06
2023-02-09T23:46:47.291Z,102233.94
2023-02-09T23:51:50.049Z,102243.66
2023-02-09T23:56:53.619Z,102248.31
